Time;durP1;ratioP1;P1;durP2;ratioP2;P2;SDS_P1;SDS_P2;PMS_P1;PMS_P2;Temp;Humidity;BMP_temperature;BMP_pressure;BME280_temperature;BME280_humidity;BME280_pressure;Samples;Min_cycle;Max_cycle;Signal;HPM_P1;HPM_P2
2022/09/12 00:00:39;;;;;;;12.20;8.17;;;;;;;7.25;100.00;101624.25;5014227;28;20033;-74
2022/09/12 00:03:06;;;;;;;8.87;7.27;;;;;;;7.17;100.00;101610.72;5014094;28;20030;-73
2022/09/12 00:05:32;;;;;;;11.10;8.33;;;;;;;7.19;100.00;101611.47;4996495;28;20042;-74
2022/09/12 00:07:59;;;;;;;13.97;7.77;;;;;;;7.19;100.00;101622.06;5013887;28;20064;-74
2022/09/12 00:10:24;;;;;;;8.50;7.53;;;;;;;7.11;100.00;101612.91;5013907;28;20136;-74
2022/09/12 00:12:50;;;;;;;13.83;8.77;;;;;;;7.09;100.00;101609.53;5013738;28;20137;-73
2022/09/12 00:15:16;;;;;;;10.80;8.00;;;;;;;7.13;100.00;101618.94;5013840;28;20213;-73
2022/09/12 00:17:41;;;;;;;13.17;9.03;;;;;;;7.08;100.00;101618.44;5013969;28;20404;-73
2022/09/12 00:20:08;;;;;;;12.27;8.50;;;;;;;7.06;100.00;101611.59;5013519;28;20029;-74
2022/09/12 00:22:34;;;;;;;12.17;8.27;;;;;;;7.06;100.00;101615.06;5013631;28;20042;-73
2022/09/12 00:24:59;;;;;;;13.07;7.70;;;;;;;7.02;100.00;101613.63;5013943;28;20045;-73
2022/09/12 00:27:26;;;;;;;11.17;8.63;;;;;;;7.02;100.00;101613.63;5013918;28;20049;-73
2022/09/12 00:29:52;;;;;;;13.10;9.80;;;;;;;7.02;100.00;101613.63;4996956;28;20038;-74
2022/09/12 00:32:18;;;;;;;15.17;7.87;;;;;;;7.01;100.00;101614.59;5013556;28;20038;-74
2022/09/12 00:34:43;;;;;;;20.57;9.03;;;;;;;6.96;100.00;101605.31;5013540;28;20121;-74
2022/09/12 00:37:09;;;;;;;12.37;7.77;;;;;;;6.99;100.00;101616.53;5013221;28;20113;-74
2022/09/12 00:39:34;;;;;;;13.87;8.70;;;;;;;6.98;100.00;101617.47;5013495;28;20482;-74
2022/09/12 00:42:00;;;;;;;10.90;8.10;;;;;;;6.93;100.00;101610.81;5013504;28;20038;-74
2022/09/12 00:44:25;;;;;;;10.83;8.73;;;;;;;6.95;100.00;101628.31;4995898;28;20030;-74
2022/09/12 00:46:58;;;;;;;17.50;8.87;;;;;;;6.95;100.00;101625.66;5013322;28;20045;-73
2022/09/12 00:49:46;;;;;;;11.07;8.87;;;;;;;6.93;100.00;101624.91;5013633;28;20061;-73
2022/09/12 00:52:18;;;;;;;15.07;9.75;;;;;;;6.86;100.00;101617.56;5013804;28;20034;-73
2022/09/12 00:54:51;;;;;;;11.47;8.07;;;;;;;6.87;100.00;101614.81;5013617;28;20042;-73
2022/09/12 00:57:22;;;;;;;13.07;9.00;;;;;;;6.80;100.00;101616.25;5014138;28;20396;-73
2022/09/12 01:00:00;;;;;;;13.33;9.47;;;;;;;6.85;100.00;101622.03;5024504;28;20044;-73
2022/09/12 01:02:26;;;;;;;12.45;8.93;;;;;;;6.81;100.00;101617.94;5038364;28;20085;-73
2022/09/12 01:04:52;;;;;;;13.10;8.57;;;;;;;6.77;100.00;101613.81;5038229;28;20110;-73
2022/09/12 01:07:18;;;;;;;12.83;9.53;;;;;;;6.80;100.00;101625.03;5037385;28;20010;-73
2022/09/12 01:09:45;;;;;;;13.33;8.47;;;;;;;6.78;100.00;101626.94;5016155;28;20037;-73
2022/09/12 01:12:14;;;;;;;15.03;8.90;;;;;;;6.76;100.00;101625.38;5014007;28;20065;-73
2022/09/12 01:14:40;;;;;;;14.43;8.73;;;;;;;6.74;100.00;101625.50;5013082;28;20520;-73
2022/09/12 01:17:05;;;;;;;13.77;9.90;;;;;;;6.72;100.00;101621.28;5034672;28;20064;-74
2022/09/12 01:19:52;;;;;;;14.23;10.17;;;;;;;6.75;100.00;101627.19;5037805;28;20048;-73
2022/09/12 01:22:48;;;;;;;13.50;10.37;;;;;;;6.76;100.00;101628.03;5032765;28;20037;-72
2022/09/12 01:25:26;;;;;;;14.20;10.50;;;;;;;6.77;100.00;101629.72;5026716;28;20044;-71
2022/09/12 01:28:02;;;;;;;19.60;11.67;;;;;;;6.75;100.00;101626.34;5020296;28;20497;-73
2022/09/12 01:31:07;;;;;;;24.80;13.30;;;;;;;6.71;100.00;101619.59;5018611;28;20042;-73
2022/09/12 01:33:46;;;;;;;19.37;13.10;;;;;;;6.71;100.00;101619.59;5032315;28;20085;-73
2022/09/12 01:36:35;;;;;;;22.60;12.63;;;;;;;6.77;100.00;101627.06;5018347;28;20042;-73
2022/09/12 01:39:29;;;;;;;15.00;11.67;;;;;;;6.79;100.00;101630.44;5013732;28;20038;-73
2022/09/12 01:42:01;;;;;;;18.60;11.50;;;;;;;6.74;100.00;101622.00;5013614;28;20042;-74
2022/09/12 01:44:27;;;;;;;18.37;12.77;;;;;;;6.73;100.00;101622.97;5013642;28;20116;-73
2022/09/12 01:46:52;;;;;;;23.07;13.50;;;;;;;6.69;100.00;101624.16;5013905;28;20481;-73
2022/09/12 01:49:26;;;;;;;19.67;13.50;;;;;;;6.67;100.00;101628.75;5012806;28;20088;-73
2022/09/12 01:52:12;;;;;;;20.23;13.57;;;;;;;6.72;100.00;101626.56;5012807;28;20553;-74
2022/09/12 01:54:44;;;;;;;20.50;13.63;;;;;;;6.68;100.00;101631.25;4995412;28;20440;-73
2022/09/12 01:57:19;;;;;;;20.80;12.93;;;;;;;6.67;100.00;101628.75;5012777;28;20045;-72
2022/09/12 01:59:49;;;;;;;20.90;12.63;;;;;;;6.64;100.00;101623.66;5012312;28;20037;-72
2022/09/12 02:02:20;;;;;;;22.07;12.97;;;;;;;6.63;100.00;101627.25;5012457;28;20539;-75
2022/09/12 02:05:12;;;;;;;18.97;13.03;;;;;;;6.64;100.00;101639.53;5012062;28;20531;-74
2022/09/12 02:07:46;;;;;;;19.33;12.60;;;;;;;6.62;100.00;101631.69;5009200;28;20045;-74
2022/09/12 02:10:16;;;;;;;20.17;12.10;;;;;;;6.61;100.00;101639.75;4994650;28;20587;-73
2022/09/12 02:12:57;;;;;;;25.30;13.90;;;;;;;6.60;100.00;101633.63;5015866;28;20050;-73
2022/09/12 02:15:29;;;;;;;17.93;12.73;;;;;;;6.63;100.00;101640.47;4998430;28;20049;-74
2022/09/12 02:17:57;;;;;;;15.50;11.27;;;;;;;6.60;100.00;101638.06;4998760;28;20073;-74
2022/09/12 02:20:29;;;;;;;18.95;12.27;;;;;;;6.51;100.00;101621.94;4998554;28;20038;-73
2022/09/12 02:22:56;;;;;;;19.20;13.10;;;;;;;6.58;100.00;101637.34;5016170;28;20030;-73
2022/09/12 02:25:24;;;;;;;19.57;12.40;;;;;;;6.58;100.00;101643.47;5016666;28;20563;-72
2022/09/12 02:28:16;;;;;;;22.27;12.73;;;;;;;6.56;100.00;101641.91;5021673;28;20401;-73
2022/09/12 02:30:51;;;;;;;15.60;11.37;;;;;;;6.53;100.00;101638.53;5015475;28;20054;-74
2022/09/12 02:33:35;;;;;;;23.00;13.13;;;;;;;6.49;100.00;101641.53;5031014;28;20046;-73
2022/09/12 02:36:14;;;;;;;22.83;13.73;;;;;;;6.45;100.00;101633.00;5029035;28;20041;-74
2022/09/12 02:38:44;;;;;;;20.90;13.10;;;;;;;6.44;100.00;101627.81;5026502;28;20038;-73
2022/09/12 02:41:11;;;;;;;21.40;12.50;;;;;;;6.42;100.00;101625.28;5018778;28;20614;-73
2022/09/12 02:43:37;;;;;;;19.23;12.37;;;;;;;6.37;100.00;101616.84;5018914;28;20452;-73
2022/09/12 02:46:06;;;;;;;20.87;12.30;;;;;;;6.38;100.00;101626.47;5016474;28;20037;-73
2022/09/12 02:48:38;;;;;;;20.67;12.63;;;;;;;6.38;100.00;101631.75;5017853;28;20068;-73
2022/09/12 02:51:04;;;;;;;16.47;11.67;;;;;;;6.22;100.00;101604.75;5020652;28;20514;-75
2022/09/12 02:53:30;;;;;;;19.90;12.07;;;;;;;6.30;100.00;101615.59;5016228;28;20117;-75
2022/09/12 02:55:56;;;;;;;18.23;11.90;;;;;;;6.30;100.00;101620.88;5015529;28;20512;-74
2022/09/12 02:58:29;;;;;;;19.67;12.23;;;;;;;6.16;100.00;101591.97;4998064;28;20440;-74
2022/09/12 03:01:12;;;;;;;17.23;12.27;;;;;;;6.27;100.00;101630.84;5015654;28;20116;-73
2022/09/12 03:03:58;;;;;;;16.43;11.43;;;;;;;6.24;100.00;101633.72;5020676;28;20034;-74
2022/09/12 03:06:44;;;;;;;15.23;12.10;;;;;;;6.23;100.00;101630.25;5034814;28;20058;-75
2022/09/12 03:09:26;;;;;;;15.27;10.93;;;;;;;6.20;100.00;101638.41;5036045;28;20041;-74
2022/09/12 03:12:24;;;;;;;17.63;10.73;;;;;;;6.17;100.00;101636.84;5034009;28;20054;-72
2022/09/12 03:15:06;;;;;;;;;;;;;;;6.17;100.00;101636.00;5000390;28;20412;-73
2022/09/12 03:18:10;;;;;;;15.50;10.73;;;;;;;6.14;100.00;101630.94;5015106;28;19917;-73
2022/09/12 03:21:08;;;;;;;19.33;12.87;;;;;;;6.12;100.00;101633.69;5014419;28;20524;-74
2022/09/12 03:23:43;;;;;;;16.52;10.82;;;;;;;6.06;100.00;101623.53;5014278;28;20153;-74
2022/09/12 03:26:16;;;;;;;17.87;11.57;;;;;;;6.05;100.00;101623.66;5014691;28;20079;-74
2022/09/12 03:28:44;;;;;;;19.17;11.40;;;;;;;6.04;100.00;101633.38;5014937;28;20038;-74
2022/09/12 03:31:18;;;;;;;19.17;11.70;;;;;;;6.03;100.00;101628.22;5015137;28;20132;-74
2022/09/12 03:33:44;;;;;;;20.92;12.82;;;;;;;6.05;100.00;101632.44;5014720;28;20064;-74
2022/09/12 03:36:23;;;;;;;21.07;11.40;;;;;;;6.10;100.00;101630.31;5014528;28;20060;-74
2022/09/12 03:38:48;;;;;;;19.30;12.30;;;;;;;6.10;100.00;101625.03;5014680;28;20034;-73
2022/09/12 03:41:14;;;;;;;17.20;11.43;;;;;;;6.03;100.00;101612.34;5014542;28;20034;-74
2022/09/12 03:43:40;;;;;;;15.13;11.90;;;;;;;6.09;100.00;101625.13;5014745;28;20037;-74
2022/09/12 03:46:06;;;;;;;17.93;12.20;;;;;;;6.15;100.00;101629.97;4982969;28;20041;-74
2022/09/12 03:48:31;;;;;;;17.97;12.23;;;;;;;6.12;100.00;101622.25;5014896;28;20037;-73
2022/09/12 03:51:06;;;;;;;18.37;12.93;;;;;;;6.04;100.00;101614.03;5014386;28;20485;-73
2022/09/12 03:53:31;;;;;;;17.43;11.93;;;;;;;6.13;100.00;101629.25;5014781;28;20029;-73
2022/09/12 03:55:57;;;;;;;26.93;13.40;;;;;;;6.16;100.00;101634.31;4997244;28;20191;-72
2022/09/12 03:58:24;;;;;;;23.43;12.77;;;;;;;6.15;100.00;101632.63;5014818;28;20034;-74
2022/09/12 04:00:50;;;;;;;18.90;11.87;;;;;;;6.14;100.00;101620.34;5017507;28;20030;-74
2022/09/12 04:03:16;;;;;;;18.47;11.93;;;;;;;6.18;100.00;101637.69;5001242;28;20525;-74
2022/09/12 04:05:47;;;;;;;19.47;14.20;;;;;;;6.20;100.00;101630.47;5024291;28;20045;-73
2022/09/12 04:08:13;;;;;;;18.67;12.70;;;;;;;6.20;100.00;101641.06;5027081;28;20064;-75
2022/09/12 04:10:39;;;;;;;23.97;11.70;;;;;;;6.21;100.00;101634.81;5015388;28;20092;-71
2022/09/12 04:13:06;;;;;;;20.17;12.07;;;;;;;6.19;100.00;101634.06;5014156;28;20053;-72
2022/09/12 04:15:32;;;;;;;18.67;12.43;;;;;;;6.19;100.00;101639.38;5015230;28;20509;-72
2022/09/12 04:17:57;;;;;;;16.17;11.97;;;;;;;6.24;100.00;101647.81;5025658;28;20060;-72
2022/09/12 04:20:24;;;;;;;15.07;11.67;;;;;;;6.27;100.00;101650.22;5027009;28;20033;-70
2022/09/12 04:22:51;;;;;;;16.10;11.07;;;;;;;6.23;100.00;101635.53;5008867;28;20037;-73
2022/09/12 04:25:20;;;;;;;17.33;12.20;;;;;;;6.35;100.00;101650.47;5026036;28;20056;-73
2022/09/12 04:27:46;;;;;;;21.33;11.47;;;;;;;6.37;100.00;101653.91;5008053;28;20045;-70
2022/09/12 04:30:15;;;;;;;17.33;12.43;;;;;;;6.42;100.00;101658.84;4985924;28;20421;-71
2022/09/12 04:32:44;;;;;;;15.80;12.23;;;;;;;6.42;100.00;101657.03;5040577;28;20156;-74
2022/09/12 04:35:11;;;;;;;17.17;11.30;;;;;;;6.34;100.00;101630.28;5024788;28;20076;-72
2022/09/12 04:37:38;;;;;;;22.87;13.03;;;;;;;6.51;100.00;101642.25;5025721;28;20076;-77
2022/09/12 04:40:04;;;;;;;18.70;12.43;;;;;;;6.58;100.00;101655.88;5049037;28;20185;-75
2022/09/12 04:42:31;;;;;;;17.67;12.43;;;;;;;6.60;100.00;101653.94;5049998;28;20045;-71
2022/09/12 04:45:05;;;;;;;17.93;13.17;;;;;;;6.57;100.00;101649.75;5051958;28;20453;-75
2022/09/12 04:47:32;;;;;;;19.70;11.17;;;;;;;6.67;100.00;101656.06;5016450;28;20049;-72
2022/09/12 04:49:57;;;;;;;20.60;12.37;;;;;;;6.66;100.00;101653.53;5015501;28;20467;-72
2022/09/12 04:52:23;;;;;;;19.77;12.23;;;;;;;6.37;100.00;101605.44;5033245;28;20037;-72
2022/09/12 04:54:48;;;;;;;21.33;13.30;;;;;;;6.77;100.00;101661.47;5032766;28;20103;-74
2022/09/12 04:57:14;;;;;;;14.63;11.37;;;;;;;6.82;99.94;101667.25;5033063;28;20038;-73
2022/09/12 04:59:39;;;;;;;18.57;12.17;;;;;;;6.81;100.00;101668.22;5032989;28;20036;-73
2022/09/12 05:02:05;;;;;;;14.30;10.80;;;;;;;6.90;100.00;101667.53;5032932;28;20445;-73
2022/09/12 05:04:30;;;;;;;17.80;11.47;;;;;;;6.92;99.91;101662.94;5032777;28;20025;-72
2022/09/12 05:06:56;;;;;;;17.70;12.33;;;;;;;7.04;98.33;101669.97;5032818;28;20112;-72
2022/09/12 05:09:21;;;;;;;18.97;12.60;;;;;;;7.11;98.34;101665.88;5032728;28;20151;-73
2022/09/12 05:11:49;;;;;;;19.60;13.37;;;;;;;7.21;97.81;101671.31;5032773;28;20068;-72
2022/09/12 05:14:15;;;;;;;21.10;13.63;;;;;;;7.27;97.12;101654.13;5032599;28;20041;-73
2022/09/12 05:16:40;;;;;;;18.30;11.63;;;;;;;7.34;96.82;101656.16;5032811;28;20060;-72
2022/09/12 05:19:06;;;;;;;21.47;12.03;;;;;;;7.40;96.65;101660.13;5032871;28;20036;-72
2022/09/12 05:21:31;;;;;;;18.27;11.27;;;;;;;7.52;96.42;101675.09;5032656;28;20106;-72
2022/09/12 05:24:00;;;;;;;18.53;11.97;;;;;;;7.53;96.56;101671.47;5032000;28;20044;-70
2022/09/12 05:26:26;;;;;;;15.83;11.50;;;;;;;7.60;96.51;101679.78;5032261;28;20128;-73
2022/09/12 05:28:52;;;;;;;16.87;12.10;;;;;;;7.70;96.53;101678.06;5038970;28;20037;-73
2022/09/12 05:31:19;;;;;;;16.77;10.63;;;;;;;7.77;95.80;101685.41;5043249;28;20052;-72
2022/09/12 05:33:47;;;;;;;19.20;12.00;;;;;;;7.76;95.76;101664.31;5038265;28;20458;-72
2022/09/12 05:36:16;;;;;;;19.87;11.90;;;;;;;7.92;95.66;101687.81;5036409;28;20064;-75
2022/09/12 05:38:42;;;;;;;17.73;11.23;;;;;;;7.96;95.47;101679.50;5032420;28;20047;-74
2022/09/12 05:41:11;;;;;;;15.83;10.63;;;;;;;8.03;94.86;101679.84;5033882;28;20041;-75
2022/09/12 05:43:37;;;;;;;18.95;11.07;;;;;;;8.10;94.88;101689.00;5033995;28;20034;-72
2022/09/12 05:46:08;;;;;;;19.17;10.73;;;;;;;8.15;94.90;101676.22;5046906;28;20043;-72
2022/09/12 05:48:38;;;;;;;17.50;10.90;;;;;;;8.21;94.83;101682.81;5048907;28;20049;-79
2022/09/12 05:51:07;;;;;;;16.13;10.00;;;;;;;8.21;95.21;101678.34;5054305;28;20038;-77
2022/09/12 05:53:34;;;;;;;17.60;10.40;;;;;;;8.27;94.38;101680.50;5021470;28;20551;-75
2022/09/12 05:56:06;;;;;;;12.93;10.03;;;;;;;8.33;93.74;101679.16;5053636;28;20037;-74
2022/09/12 05:58:32;;;;;;;13.70;8.97;;;;;;;8.46;92.78;101684.34;5050928;28;20027;-74
2022/09/12 06:01:06;;;;;;;12.83;7.60;;;;;;;8.52;93.02;101673.22;5035176;28;20093;-72
2022/09/12 06:03:38;;;;;;;11.13;7.10;;;;;;;8.57;92.18;101673.69;5048389;28;20037;-73
2022/09/12 06:06:05;;;;;;;15.13;8.67;;;;;;;8.64;92.20;101670.38;5044851;28;20034;-73
2022/09/12 06:08:32;;;;;;;14.37;8.93;;;;;;;8.76;91.47;101681.81;5033680;28;20033;-74
2022/09/12 06:11:07;;;;;;;12.80;7.70;;;;;;;8.76;91.48;101667.69;5041583;28;20033;-73
2022/09/12 06:13:36;;;;;;;12.37;7.57;;;;;;;8.80;90.79;101659.31;5054927;28;20048;-73
2022/09/12 06:16:27;;;;;;;11.40;6.63;;;;;;;9.02;90.86;101684.09;5055111;28;20109;-72
2022/09/12 06:19:26;;;;;;;10.63;6.57;;;;;;;9.11;90.05;101684.13;5054578;28;20073;-73
2022/09/12 06:21:53;;;;;;;11.00;6.37;;;;;;;9.16;88.21;101686.41;5005845;28;20033;-72
2022/09/12 06:24:19;;;;;;;9.17;6.03;;;;;;;9.21;88.15;101684.19;5055105;28;20032;-74
2022/09/12 06:26:46;;;;;;;9.50;5.83;;;;;;;9.30;87.51;101683.41;5054429;28;20048;-72
2022/09/12 06:29:12;;;;;;;9.93;6.10;;;;;;;9.36;86.72;101688.19;5053480;28;20033;-73
2022/09/12 06:31:40;;;;;;;11.20;5.87;;;;;;;9.50;85.96;101689.66;5028572;28;20033;-73
2022/09/12 06:34:07;;;;;;;9.90;5.60;;;;;;;9.27;85.70;101635.84;5016266;28;20068;-74
2022/09/12 06:36:41;;;;;;;10.27;5.97;;;;;;;9.59;86.12;101689.72;5054972;28;20022;-73
2022/09/12 06:39:11;;;;;;;7.80;4.70;;;;;;;9.62;85.42;101684.13;5055993;28;20038;-73
2022/09/12 06:41:37;;;;;;;13.23;5.27;;;;;;;9.65;84.87;101683.00;5029453;28;20037;-74
2022/09/12 06:44:03;;;;;;;8.90;5.17;;;;;;;9.69;84.06;101695.06;5046884;28;20033;-73
2022/09/12 06:46:30;;;;;;;10.63;5.00;;;;;;;9.80;83.37;101699.44;5033993;28;20084;-74
2022/09/12 06:48:57;;;;;;;10.60;5.10;;;;;;;9.85;82.89;101683.94;5034209;28;20047;-74
2022/09/12 06:51:23;;;;;;;10.60;4.63;;;;;;;9.89;83.65;101691.50;5033253;28;20131;-72
2022/09/12 06:53:48;;;;;;;9.70;4.63;;;;;;;9.96;82.71;101697.13;5032454;28;20148;-73
2022/09/12 06:56:16;;;;;;;9.90;5.00;;;;;;;9.95;82.21;101684.78;5032567;28;20037;-73
2022/09/12 06:58:43;;;;;;;;;;;;;;;10.07;83.33;101699.66;5018500;28;20484;-73
2022/09/12 07:01:14;;;;;;;7.53;4.60;;;;;;;10.07;81.62;101691.66;5044558;28;19923;-72
2022/09/12 07:03:41;;;;;;;10.17;4.83;;;;;;;10.13;81.08;101696.47;5058603;28;20040;-73
2022/09/12 07:06:11;;;;;;;6.17;4.63;;;;;;;10.11;81.76;101679.75;5058402;28;20060;-74
2022/09/12 07:08:37;;;;;;;10.20;5.20;;;;;;;10.23;81.79;101694.69;5041013;28;20172;-75
2022/09/12 07:11:15;;;;;;;9.80;5.30;;;;;;;10.26;80.38;101682.09;5044623;28;20036;-74
2022/09/12 07:13:43;;;;;;;8.77;4.63;;;;;;;10.28;80.83;101680.97;5036070;28;20045;-74
2022/09/12 07:16:09;;;;;;;9.17;5.70;;;;;;;10.36;81.19;101685.59;5035695;28;20045;-74
2022/09/12 07:18:39;;;;;;;12.77;5.40;;;;;;;10.38;80.72;101680.97;5036217;28;20041;-73
2022/09/12 07:21:08;;;;;;;8.23;4.40;;;;;;;10.41;79.53;101683.38;5035485;28;20033;-73
2022/09/12 07:23:38;;;;;;;6.10;4.00;;;;;;;10.47;78.77;101674.81;5035376;28;20029;-76
2022/09/12 07:26:05;;;;;;;4.53;3.87;;;;;;;10.60;78.21;101685.19;5035580;28;20111;-75
2022/09/12 07:28:32;;;;;;;9.80;3.77;;;;;;;10.65;78.30;101678.44;5035135;28;20037;-76
2022/09/12 07:31:05;;;;;;;6.10;3.57;;;;;;;10.71;78.20;101679.72;5017240;28;20123;-74
2022/09/12 07:33:30;;;;;;;6.60;3.70;;;;;;;10.81;78.08;101678.72;5034713;28;20477;-74
2022/09/12 07:36:19;;;;;;;6.45;3.70;;;;;;;10.79;77.11;101675.38;5034758;28;20174;-73
2022/09/12 07:38:45;;;;;;;13.03;3.63;;;;;;;10.97;76.80;101694.13;5035204;28;20044;-74
2022/09/12 07:41:22;;;;;;;8.10;4.23;;;;;;;11.07;76.54;101688.81;5036219;28;20124;-73
2022/09/12 07:43:51;;;;;;;7.23;4.17;;;;;;;11.13;77.01;101696.22;5035994;28;20025;-74
2022/09/12 07:46:17;;;;;;;11.90;5.17;;;;;;;11.16;75.35;101687.94;5016788;28;20493;-74
2022/09/12 07:48:44;;;;;;;5.73;3.70;;;;;;;11.02;75.25;101649.25;5000209;28;20037;-74
2022/09/12 07:51:10;;;;;;;8.63;3.90;;;;;;;11.33;75.56;101678.34;5016888;28;20468;-72
2022/09/12 07:53:39;;;;;;;10.07;4.20;;;;;;;11.37;75.40;101674.41;5016814;28;20033;-74
2022/09/12 07:56:09;;;;;;;4.85;3.75;;;;;;;11.39;74.88;101667.94;5034549;28;20044;-74
2022/09/12 07:58:36;;;;;;;7.97;4.07;;;;;;;11.51;75.35;101675.75;5035050;28;20030;-74
2022/09/12 08:01:03;;;;;;;5.80;3.83;;;;;;;11.57;74.76;101670.69;5017500;28;20033;-73
2022/09/12 08:03:29;;;;;;;8.07;3.27;;;;;;;11.61;73.15;101665.91;5038118;28;20041;-74
2022/09/12 08:05:54;;;;;;;7.30;4.37;;;;;;;11.68;73.28;101664.31;5039377;28;20070;-74
2022/09/12 08:08:20;;;;;;;8.23;3.50;;;;;;;11.69;72.42;101663.31;5057735;28;20021;-74
2022/09/12 08:10:48;;;;;;;7.85;3.35;;;;;;;11.76;72.48;101667.91;5057819;28;20171;-74
2022/09/12 08:13:15;;;;;;;6.37;3.70;;;;;;;11.84;71.93;101675.19;5049552;28;20049;-74
2022/09/12 08:15:40;;;;;;;4.77;3.50;;;;;;;11.86;72.27;101670.59;5048978;28;20079;-74
2022/09/12 08:18:06;;;;;;;7.70;3.97;;;;;;;11.85;73.41;101663.53;5045415;28;20044;-73
2022/09/12 08:20:31;;;;;;;8.77;3.50;;;;;;;11.89;71.32;101662.28;5045665;28;20055;-73
2022/09/12 08:22:57;;;;;;;4.93;3.33;;;;;;;11.92;71.21;101655.78;5043389;28;20199;-73
2022/09/12 08:25:22;;;;;;;12.70;3.77;;;;;;;12.01;71.22;101655.72;5044104;28;20038;-73
2022/09/12 08:27:48;;;;;;;8.07;4.13;;;;;;;12.12;70.81;101656.50;5036775;28;20041;-73
2022/09/12 08:30:13;;;;;;;10.70;3.50;;;;;;;12.18;71.39;101654.09;5018458;28;20496;-74
2022/09/12 08:32:39;;;;;;;10.40;3.53;;;;;;;12.27;71.57;101647.00;5038385;28;20083;-73
2022/09/12 08:35:05;;;;;;;8.20;3.80;;;;;;;12.34;70.21;101654.22;5017178;28;20034;-74
2022/09/12 08:37:30;;;;;;;26.80;5.17;;;;;;;12.42;70.73;101664.16;5048625;28;20045;-74
2022/09/12 08:39:56;;;;;;;5.80;3.73;;;;;;;12.49;69.86;101662.56;5053038;28;20032;-72
2022/09/12 08:42:53;;;;;;;14.50;4.43;;;;;;;12.53;69.25;101663.09;5041283;28;20044;-73
2022/09/12 08:45:27;;;;;;;8.82;4.05;;;;;;;12.50;69.21;101647.38;5045200;28;20037;-73
2022/09/12 08:47:55;;;;;;;9.50;4.07;;;;;;;12.49;69.26;101635.84;5053338;28;20034;-72
2022/09/12 08:50:25;;;;;;;8.00;4.60;;;;;;;12.67;69.51;101671.41;5056765;28;20030;-74
2022/09/12 08:53:12;;;;;;;7.03;4.23;;;;;;;12.68;69.29;101662.38;5056563;28;20053;-73
2022/09/12 08:55:43;;;;;;;7.67;4.20;;;;;;;12.75;69.21;101665.28;5022301;28;20045;-73
2022/09/12 08:58:16;;;;;;;10.57;4.77;;;;;;;12.81;69.20;101671.84;5057469;28;20047;-73
2022/09/12 09:01:23;;;;;;;10.27;3.60;;;;;;;12.87;67.86;101668.56;5054700;28;20009;-72
2022/09/12 09:04:16;;;;;;;6.40;3.67;;;;;;;12.91;68.40;101659.22;5054144;28;20071;-76
2022/09/12 09:06:58;;;;;;;4.47;3.77;;;;;;;12.88;66.57;101655.03;5053070;28;20400;-74
2022/09/12 09:09:55;;;;;;;8.03;3.53;;;;;;;12.98;66.59;101665.63;5055161;28;20044;-75
2022/09/12 09:12:44;;;;;;;13.97;7.70;;;;;;;13.06;67.22;101671.03;5054232;28;20053;-74
2022/09/12 09:15:36;;;;;;;11.67;3.77;;;;;;;13.10;65.82;101671.56;5039595;28;20148;-73
2022/09/12 09:18:18;;;;;;;6.87;3.23;;;;;;;13.11;66.69;101662.53;5030297;28;20056;-74
2022/09/12 09:20:59;;;;;;;4.57;3.00;;;;;;;13.14;65.81;101668.41;5033767;28;20029;-74
2022/09/12 09:23:32;;;;;;;5.20;3.47;;;;;;;13.18;65.56;101655.59;5034370;28;20033;-75
2022/09/12 09:26:25;;;;;;;4.57;2.90;;;;;;;13.20;65.17;101666.97;5034412;28;20068;-73
2022/09/12 09:29:03;;;;;;;7.00;3.23;;;;;;;13.21;65.81;101660.63;5033024;28;20060;-73
2022/09/12 09:31:37;;;;;;;4.00;2.80;;;;;;;13.21;66.08;101658.78;5033636;28;20476;-73
2022/09/12 09:34:15;;;;;;;2.70;2.27;;;;;;;13.26;65.13;101651.13;5033592;28;20033;-73
2022/09/12 09:36:48;;;;;;;6.72;2.92;;;;;;;13.35;65.25;101644.00;5033668;28;20048;-74
2022/09/12 09:40:11;;;;;;;6.43;3.05;;;;;;;13.37;64.60;101630.47;5033429;28;20057;-74
2022/09/12 09:43:04;;;;;;;4.03;2.85;;;;;;;13.52;65.20;101642.22;5019135;28;20054;-74
2022/09/12 09:45:30;;;;;;;5.20;3.30;;;;;;;13.55;64.27;101644.59;5016810;28;20052;-75
2022/09/12 09:48:14;;;;;;;8.43;3.77;;;;;;;13.63;64.58;101652.66;5033634;28;20095;-74
2022/09/12 09:50:44;;;;;;;9.97;3.43;;;;;;;13.61;63.60;101642.13;5033494;28;20041;-75
2022/09/12 09:53:22;;;;;;;4.17;3.33;;;;;;;13.68;64.03;101649.50;5033075;28;20037;-74
2022/09/12 09:55:48;;;;;;;;;;;;;;;13.72;63.10;101645.50;5032882;28;20048;-74
2022/09/12 09:58:36;;;;;;;5.97;3.47;;;;;;;13.69;63.28;101632.44;5032933;28;20299;-72
2022/09/12 10:01:14;;;;;;;5.85;2.95;;;;;;;13.63;63.89;101616.03;5032226;28;20030;-73
2022/09/12 10:03:47;;;;;;;5.18;3.70;;;;;;;13.62;64.01;101613.53;5032286;28;20061;-74
2022/09/12 10:06:19;;;;;;;4.70;3.20;;;;;;;13.73;64.35;101617.72;5031904;28;20045;-74
2022/09/12 10:08:46;;;;;;;5.87;3.30;;;;;;;13.51;64.33;101568.31;5031984;28;20112;-73
2022/09/12 10:11:15;;;;;;;4.37;3.20;;;;;;;13.83;64.42;101610.38;5031761;28;20484;-76
2022/09/12 10:13:55;;;;;;;4.33;3.10;;;;;;;13.93;64.67;101619.13;5031960;28;20049;-74
2022/09/12 10:16:33;;;;;;;8.20;4.10;;;;;;;13.94;64.05;101618.97;5031956;28;20037;-73
2022/09/12 10:19:01;;;;;;;5.13;3.45;;;;;;;13.99;64.18;101620.31;5032551;28;20040;-74
2022/09/12 10:21:32;;;;;;;6.13;3.53;;;;;;;13.98;62.93;101616.81;5033771;28;20052;-74
2022/09/12 10:24:15;;;;;;;6.23;3.07;;;;;;;13.95;61.69;101615.28;5032710;28;20059;-74
2022/09/12 10:26:50;;;;;;;5.43;3.07;;;;;;;14.00;62.45;101616.63;5035018;28;20496;-74
2022/09/12 10:29:24;;;;;;;9.60;3.93;;;;;;;13.94;61.96;101602.91;5033998;28;20037;-74
2022/09/12 10:31:53;;;;;;;4.93;3.63;;;;;;;14.05;62.42;101619.66;5034489;28;20354;-73
2022/09/12 10:34:43;;;;;;;3.50;3.17;;;;;;;13.99;62.26;101598.91;5035662;28;20068;-72
2022/09/12 10:37:24;;;;;;;4.30;3.57;;;;;;;14.09;62.48;101616.47;5025779;28;20057;-74
2022/09/12 10:39:53;;;;;;;5.27;3.23;;;;;;;14.08;61.58;101603.25;5035015;28;20041;-73
2022/09/12 10:42:37;;;;;;;;;;;;;;;14.15;61.35;101605.09;5035386;28;20441;-74
2022/09/12 10:45:02;;;;;;;10.13;3.53;;;;;;;14.12;60.59;101599.25;5035407;28;20024;-71
2022/09/12 10:47:30;;;;;;;6.73;3.90;;;;;;;14.14;61.23;101599.91;5034789;28;20116;-72
2022/09/12 10:50:27;;;;;;;3.50;3.20;;;;;;;14.22;60.08;101602.63;5035319;28;20037;-75
2022/09/12 10:52:54;;;;;;;6.83;3.63;;;;;;;14.27;60.54;101598.44;5035260;28;20091;-73
2022/09/12 10:55:33;;;;;;;3.50;2.87;;;;;;;14.31;60.26;101598.94;5034225;28;20045;-77
2022/09/12 10:58:21;;;;;;;4.70;4.07;;;;;;;14.37;60.06;101595.59;5034926;28;20055;-72
2022/09/12 11:00:58;;;;;;;4.10;3.20;;;;;;;14.45;60.13;101590.25;5034975;28;20488;-72
2022/09/12 11:03:53;;;;;;;4.20;3.27;;;;;;;14.51;59.43;101594.97;5035124;28;20044;-73
2022/09/12 11:06:31;;;;;;;8.73;3.20;;;;;;;14.54;60.05;101586.56;4994291;28;20404;-73
2022/09/12 11:09:00;;;;;;;11.73;4.43;;;;;;;14.59;60.18;101582.56;5034962;28;20447;-70
2022/09/12 11:11:44;;;;;;;6.75;3.95;;;;;;;14.64;60.50;101570.31;5034368;28;20060;-73
2022/09/12 11:14:13;;;;;;;8.93;4.27;;;;;;;14.67;58.58;101578.00;5034574;28;20046;-72
2022/09/12 11:17:01;;;;;;;7.10;3.53;;;;;;;14.69;59.38;101580.53;5034450;28;20439;-76
2022/09/12 11:19:38;;;;;;;12.50;3.20;;;;;;;14.72;58.88;101577.50;5034767;28;20087;-75
2022/09/12 11:22:15;;;;;;;4.53;3.20;;;;;;;14.76;58.81;101582.38;5034381;28;20124;-74
2022/09/12 11:25:03;;;;;;;3.93;2.93;;;;;;;14.79;59.44;101591.91;5034699;28;20048;-77
2022/09/12 11:28:01;;;;;;;9.65;2.75;;;;;;;14.81;58.84;101589.91;5035161;28;20358;-74
2022/09/12 11:30:50;;;;;;;6.32;3.00;;;;;;;14.82;59.35;101586.22;5034681;28;20045;-72
2022/09/12 11:33:23;;;;;;;;;;;;;;;14.87;58.35;101583.84;4998686;28;20048;-72
2022/09/12 11:35:50;;;;;;;3.10;2.80;;;;;;;14.79;57.79;101570.47;5037676;28;19923;-74
2022/09/12 11:38:51;;;;;;;5.50;3.50;;;;;;;14.93;58.62;101582.31;5038231;28;20029;-74
2022/09/12 11:41:30;;;;;;;3.67;3.13;;;;;;;14.84;58.06;101566.25;5041266;28;20083;-75
2022/09/12 11:44:14;;;;;;;5.27;3.23;;;;;;;14.93;57.73;101593.88;5032303;28;20029;-76